createdAt,value
2022-08-20T00:01:10.409Z,10.27
2022-08-20T00:03:41.276Z,11.68
2022-08-20T00:06:22.005Z,11.23
2022-08-20T00:08:49.472Z,11.68
2022-08-20T00:11:21.389Z,10.55
2022-08-20T00:13:53.954Z,12.75
2022-08-20T00:16:23.616Z,9.18
2022-08-20T00:18:51.097Z,12.45
2022-08-20T00:21:20.788Z,12.18
2022-08-20T00:23:50.360Z,10.70
2022-08-20T00:26:18.610Z,9.98
2022-08-20T00:28:46.157Z,10.52
2022-08-20T00:31:17.032Z,11.02
2022-08-20T00:33:44.123Z,10.85
2022-08-20T00:36:12.644Z,12.93
2022-08-20T00:38:41.605Z,15.65
2022-08-20T00:41:12.851Z,11.68
2022-08-20T00:46:18.175Z,12.43
2022-08-20T00:48:48.567Z,11.88
2022-08-20T00:51:32.339Z,11.73
2022-08-20T00:54:25.998Z,12.45
2022-08-20T00:56:58.743Z,10.82
2022-08-20T00:59:29.986Z,11.07
2022-08-20T01:04:26.654Z,14.73
2022-08-20T01:06:53.734Z,12.23
2022-08-20T01:09:49.735Z,14.55
2022-08-20T01:12:08.793Z,11.93
2022-08-20T01:14:35.815Z,13.15
2022-08-20T01:17:06.637Z,14.20
2022-08-20T01:19:46.726Z,14.43
2022-08-20T01:22:39.618Z,13.98
2022-08-20T01:25:28.620Z,12.50
2022-08-20T01:27:56.241Z,13.52
2022-08-20T01:30:26.580Z,17.80
2022-08-20T01:32:53.652Z,15.13
2022-08-20T01:35:21.970Z,13.70
2022-08-20T01:37:48.788Z,13.88
2022-08-20T01:40:23.780Z,16.80
2022-08-20T01:42:58.895Z,14.90
2022-08-20T01:45:30.850Z,15.13
2022-08-20T01:50:29.055Z,15.35
2022-08-20T01:53:04.724Z,16.92
2022-08-20T01:55:34.910Z,15.75
2022-08-20T01:58:02.332Z,14.00
2022-08-20T02:00:29.505Z,16.00
2022-08-20T02:02:57.615Z,12.48
2022-08-20T02:05:24.652Z,12.88
2022-08-20T02:07:57.425Z,13.75
2022-08-20T02:10:24.566Z,14.93
2022-08-20T02:12:51.551Z,13.45
2022-08-20T02:15:34.727Z,16.75
2022-08-20T02:18:10.186Z,13.88
2022-08-20T02:20:37.497Z,14.90
2022-08-20T02:23:05.786Z,13.73
2022-08-20T02:25:35.666Z,14.18
2022-08-20T02:28:10.288Z,15.48
2022-08-20T02:30:41.900Z,12.98
2022-08-20T02:33:12.776Z,13.82
2022-08-20T02:35:42.540Z,15.68
2022-08-20T02:38:11.258Z,15.98
2022-08-20T02:40:38.045Z,13.98
2022-08-20T02:43:06.427Z,12.75
2022-08-20T02:45:43.964Z,12.90
2022-08-20T02:48:21.095Z,13.07
2022-08-20T02:50:51.319Z,14.38
2022-08-20T02:53:18.897Z,12.93
2022-08-20T02:55:45.872Z,14.18
2022-08-20T02:58:13.197Z,14.52
2022-08-20T03:00:41.538Z,13.77
2022-08-20T03:03:10.711Z,14.55
2022-08-20T03:05:39.310Z,14.05
2022-08-20T03:08:08.770Z,12.93
2022-08-20T03:10:36.982Z,14.02
2022-08-20T03:13:04.686Z,13.30
2022-08-20T03:15:33.764Z,12.32
2022-08-20T03:18:01.059Z,13.05
2022-08-20T03:20:28.265Z,16.33
2022-08-20T03:22:55.119Z,15.05
2022-08-20T03:25:22.789Z,12.35
2022-08-20T03:27:54.865Z,13.55
2022-08-20T03:30:24.423Z,13.57
2022-08-20T03:32:51.410Z,13.88
2022-08-20T03:35:20.488Z,12.65
2022-08-20T03:37:48.347Z,13.05
2022-08-20T03:40:26.030Z,13.35
2022-08-20T03:42:53.076Z,15.27
2022-08-20T03:45:21.732Z,13.95
2022-08-20T03:47:49.999Z,13.20
2022-08-20T03:50:23.233Z,12.02
2022-08-20T03:52:53.114Z,15.88
2022-08-20T03:55:22.046Z,15.95
2022-08-20T03:58:02.563Z,13.10
2022-08-20T04:00:40.720Z,11.60
2022-08-20T04:03:08.742Z,16.58
2022-08-20T04:05:40.513Z,12.95
2022-08-20T04:08:13.206Z,11.88
2022-08-20T04:10:40.480Z,15.52
2022-08-20T04:13:08.580Z,14.80
2022-08-20T04:15:37.452Z,14.52
2022-08-20T04:18:10.654Z,10.88
2022-08-20T04:20:39.819Z,13.88
2022-08-20T04:23:08.371Z,13.38
2022-08-20T04:25:37.209Z,13.05
2022-08-20T04:28:16.390Z,11.50
2022-08-20T04:30:43.434Z,13.07
2022-08-20T04:33:24.361Z,13.85
2022-08-20T04:36:05.970Z,13.77
2022-08-20T04:38:50.117Z,10.48
2022-08-20T04:41:23.445Z,12.57
2022-08-20T04:43:53.669Z,12.02
2022-08-20T04:46:21.236Z,12.55
2022-08-20T04:48:50.178Z,12.23
2022-08-20T04:51:18.176Z,13.70
2022-08-20T04:53:52.308Z,14.60
2022-08-20T04:56:26.787Z,14.10
2022-08-20T04:58:56.177Z,11.70
2022-08-20T05:01:26.337Z,11.80
2022-08-20T05:03:55.180Z,12.23
2022-08-20T05:06:28.564Z,13.00
2022-08-20T05:08:58.041Z,10.40
2022-08-20T05:11:33.971Z,11.25
2022-08-20T05:14:08.986Z,12.07
2022-08-20T05:16:40.522Z,14.15
2022-08-20T05:19:12.715Z,11.43
2022-08-20T05:21:40.773Z,12.30
2022-08-20T05:24:08.449Z,12.98
2022-08-20T05:26:35.961Z,12.50
2022-08-20T05:29:05.412Z,11.15
2022-08-20T05:31:33.906Z,13.20
2022-08-20T05:34:11.303Z,15.10
2022-08-20T05:36:49.138Z,12.23
2022-08-20T05:39:21.596Z,11.65
2022-08-20T05:41:50.232Z,11.77
2022-08-20T05:44:18.459Z,12.95
2022-08-20T05:46:47.670Z,12.27
2022-08-20T05:49:19.238Z,12.68
2022-08-20T05:51:46.792Z,12.10
2022-08-20T05:54:15.662Z,10.68
2022-08-20T05:56:42.740Z,10.90
2022-08-20T05:59:10.160Z,10.82
2022-08-20T06:01:39.102Z,12.32
2022-08-20T06:04:25.134Z,11.82
2022-08-20T06:06:55.087Z,13.82
2022-08-20T06:09:30.885Z,11.07
2022-08-20T06:12:01.208Z,10.70
2022-08-20T06:14:29.522Z,12.43
2022-08-20T06:17:02.988Z,11.85
2022-08-20T06:19:32.551Z,11.05
2022-08-20T06:22:00.891Z,11.30
2022-08-20T06:24:27.594Z,11.55
2022-08-20T06:27:02.993Z,11.65
2022-08-20T06:29:30.417Z,9.05
2022-08-20T06:31:57.174Z,9.73
2022-08-20T06:34:28.382Z,8.55
2022-08-20T06:36:59.778Z,9.60
2022-08-20T06:39:31.181Z,11.25
2022-08-20T06:41:58.775Z,10.43
2022-08-20T06:44:26.067Z,9.23
2022-08-20T06:46:53.280Z,9.65
2022-08-20T06:49:20.053Z,9.00
2022-08-20T06:51:50.059Z,8.02
2022-08-20T06:54:19.201Z,10.55
2022-08-20T06:56:46.310Z,10.13
2022-08-20T06:59:12.958Z,8.57
2022-08-20T07:01:39.787Z,10.13
2022-08-20T07:04:10.672Z,9.50
2022-08-20T07:06:37.372Z,10.02
2022-08-20T07:09:04.117Z,10.82
2022-08-20T07:11:30.777Z,8.25
2022-08-20T07:13:58.538Z,11.60
2022-08-20T07:16:26.176Z,9.55
2022-08-20T07:18:53.047Z,7.63
2022-08-20T07:21:19.752Z,8.35
2022-08-20T07:23:49.606Z,8.07
2022-08-20T07:26:16.845Z,7.43
2022-08-20T07:28:43.539Z,7.65
2022-08-20T07:31:28.761Z,7.88
2022-08-20T07:33:58.777Z,8.23
2022-08-20T07:36:27.034Z,7.22
2022-08-20T07:38:54.746Z,6.72
2022-08-20T07:41:23.958Z,7.28
2022-08-20T07:43:50.703Z,7.60
2022-08-20T07:46:20.875Z,10.23
2022-08-20T07:48:51.309Z,7.75
2022-08-20T07:51:20.675Z,7.20
2022-08-20T07:53:48.172Z,8.02
2022-08-20T07:56:19.195Z,7.95
2022-08-20T07:58:50.428Z,7.97
2022-08-20T08:01:25.580Z,8.75
2022-08-20T08:03:52.822Z,6.32
2022-08-20T08:06:30.293Z,6.80
2022-08-20T08:09:11.419Z,8.32
2022-08-20T08:11:46.447Z,6.70
2022-08-20T08:14:14.342Z,6.40
2022-08-20T08:16:45.396Z,6.43
2022-08-20T08:21:41.401Z,7.05
2022-08-20T08:24:08.246Z,7.43
2022-08-20T08:26:34.891Z,8.18
2022-08-20T08:29:02.556Z,7.60
2022-08-20T08:31:29.522Z,7.65
2022-08-20T08:33:56.307Z,7.35
2022-08-20T08:36:23.592Z,8.13
2022-08-20T08:38:50.651Z,6.47
2022-08-20T08:41:22.197Z,6.10
2022-08-20T08:43:55.807Z,9.25
2022-08-20T08:46:27.031Z,6.70
2022-08-20T08:48:57.830Z,7.90
2022-08-20T08:51:39.597Z,5.95
2022-08-20T08:54:08.434Z,8.82
2022-08-20T08:56:36.606Z,7.95
2022-08-20T08:59:11.322Z,7.28
2022-08-20T09:01:53.750Z,9.13
2022-08-20T09:04:30.599Z,7.95
2022-08-20T09:06:58.823Z,4.75
2022-08-20T09:09:32.345Z,5.68
2022-08-20T09:12:08.726Z,8.13
2022-08-20T09:14:36.283Z,5.55
2022-08-20T09:17:03.897Z,6.30
2022-08-20T09:19:30.922Z,6.13
2022-08-20T09:21:58.223Z,6.97
2022-08-20T09:24:25.094Z,7.35
2022-08-20T09:26:52.014Z,8.20
2022-08-20T09:29:18.827Z,10.30
2022-08-20T09:31:45.866Z,6.35
2022-08-20T09:34:13.539Z,6.85
2022-08-20T09:36:40.184Z,8.20
2022-08-20T09:39:07.412Z,7.68
2022-08-20T09:41:34.667Z,6.55
2022-08-20T09:44:02.431Z,7.90
2022-08-20T09:46:29.193Z,7.68
2022-08-20T09:48:55.861Z,8.90
2022-08-20T09:51:23.161Z,8.10
2022-08-20T09:53:50.551Z,9.65
2022-08-20T09:56:18.119Z,6.20
2022-08-20T09:58:54.140Z,5.60
2022-08-20T10:01:23.062Z,7.05
2022-08-20T10:03:50.792Z,6.28
2022-08-20T10:06:20.420Z,7.50
2022-08-20T10:08:48.856Z,7.33
2022-08-20T10:11:16.977Z,5.10
2022-08-20T10:13:46.166Z,5.47
2022-08-20T10:16:13.544Z,6.63
2022-08-20T10:18:40.362Z,4.88
2022-08-20T10:21:12.330Z,4.90
2022-08-20T10:23:39.120Z,5.85
2022-08-20T10:26:08.207Z,5.57
2022-08-20T10:28:36.277Z,6.65
2022-08-20T10:31:06.510Z,6.93
2022-08-20T10:33:35.444Z,5.13
2022-08-20T10:36:10.990Z,5.10
2022-08-20T10:38:38.058Z,9.23
2022-08-20T10:41:05.373Z,9.25
2022-08-20T10:43:32.445Z,8.57
2022-08-20T10:45:59.623Z,8.55
2022-08-20T10:48:26.733Z,7.93
2022-08-20T10:50:53.572Z,5.72
2022-08-20T10:53:20.203Z,6.72
2022-08-20T10:55:47.374Z,7.07
2022-08-20T10:58:14.520Z,6.28
2022-08-20T11:00:41.846Z,6.35
2022-08-20T11:03:08.936Z,6.55
2022-08-20T11:05:35.955Z,5.68
2022-08-20T11:08:04.990Z,5.15
2022-08-20T11:10:34.450Z,6.75
2022-08-20T11:13:03.455Z,5.32
2022-08-20T11:15:37.222Z,7.13
2022-08-20T11:18:05.206Z,4.75
2022-08-20T11:20:32.726Z,6.97
2022-08-20T11:22:59.812Z,8.25
2022-08-20T11:25:27.478Z,5.25
2022-08-20T11:27:55.703Z,8.00
2022-08-20T11:30:26.761Z,5.05
2022-08-20T11:35:42.072Z,4.95
2022-08-20T11:38:11.054Z,5.15
2022-08-20T11:40:37.879Z,6.25
2022-08-20T11:43:20.289Z,4.25
2022-08-20T11:45:50.141Z,5.25
2022-08-20T11:48:18.362Z,5.00
2022-08-20T11:50:46.330Z,6.07
2022-08-20T11:53:13.334Z,6.03
2022-08-20T11:55:42.161Z,5.88
2022-08-20T11:58:10.025Z,5.80
2022-08-20T12:00:37.459Z,5.53
2022-08-20T12:03:09.237Z,5.72
2022-08-20T12:05:37.665Z,5.03
2022-08-20T12:08:04.863Z,6.18
2022-08-20T12:10:32.290Z,5.32
2022-08-20T12:12:59.199Z,6.72
2022-08-20T12:15:27.898Z,3.80
2022-08-20T12:17:55.624Z,3.67
2022-08-20T12:20:23.707Z,4.90
2022-08-20T12:22:51.462Z,4.15
2022-08-20T12:25:18.512Z,4.40
2022-08-20T12:27:46.819Z,4.28
2022-08-20T12:30:17.746Z,3.17
2022-08-20T12:32:45.123Z,4.70
2022-08-20T12:35:13.583Z,5.10
2022-08-20T12:37:40.943Z,3.15
2022-08-20T12:40:12.531Z,3.38
2022-08-20T12:42:40.009Z,4.13
2022-08-20T12:45:07.684Z,4.50
2022-08-20T12:47:37.396Z,4.60
2022-08-20T12:50:07.948Z,5.25
2022-08-20T12:52:35.275Z,4.28
2022-08-20T12:55:02.843Z,5.35
2022-08-20T12:57:34.288Z,3.22
2022-08-20T13:00:07.298Z,4.40
2022-08-20T13:02:35.246Z,3.85
2022-08-20T13:05:04.893Z,4.03
2022-08-20T13:07:33.026Z,3.88
2022-08-20T13:10:00.783Z,3.95
2022-08-20T13:12:28.403Z,4.30
2022-08-20T13:14:55.384Z,1.00
2022-08-20T13:17:38.310Z,1.20
2022-08-20T13:20:09.828Z,2.95
2022-08-20T13:22:37.405Z,3.88
2022-08-20T13:25:06.157Z,1.48
2022-08-20T13:27:33.257Z,1.08
2022-08-20T13:30:00.247Z,2.20
2022-08-20T13:32:27.244Z,0.82
2022-08-20T13:34:54.339Z,0.90
2022-08-20T13:37:25.799Z,2.35
2022-08-20T13:39:57.969Z,2.40
2022-08-20T13:42:25.988Z,0.95
2022-08-20T13:44:53.682Z,1.75
2022-08-20T13:47:30.013Z,0.90
2022-08-20T13:50:05.348Z,0.57
2022-08-20T13:52:33.159Z,1.42
2022-08-20T13:55:03.152Z,1.92
2022-08-20T14:00:00.272Z,0.75
2022-08-20T14:02:27.513Z,0.95
2022-08-20T14:04:55.046Z,1.00
2022-08-20T14:07:27.645Z,1.10
2022-08-20T14:10:04.023Z,2.60
2022-08-20T14:12:31.024Z,0.98
2022-08-20T14:14:58.560Z,1.60
2022-08-20T14:17:33.745Z,1.20
2022-08-20T14:20:16.797Z,1.35
2022-08-20T14:22:44.832Z,0.60
2022-08-20T14:25:15.582Z,0.90
2022-08-20T14:27:43.098Z,1.10
2022-08-20T14:30:13.922Z,1.10
2022-08-20T14:32:40.790Z,2.72
2022-08-20T14:35:09.225Z,3.55
2022-08-20T14:37:38.842Z,1.85
2022-08-20T14:40:12.014Z,1.55
2022-08-20T14:42:39.823Z,0.88
2022-08-20T14:45:08.583Z,1.45
2022-08-20T14:47:44.217Z,1.08
2022-08-20T14:50:17.417Z,1.25
2022-08-20T14:52:44.500Z,3.58
2022-08-20T14:55:15.103Z,2.35
2022-08-20T14:57:42.736Z,3.63
2022-08-20T15:00:12.804Z,1.33
2022-08-20T15:02:40.406Z,1.50
2022-08-20T15:05:08.470Z,1.38
2022-08-20T15:07:39.077Z,1.33
2022-08-20T15:10:13.160Z,1.33
2022-08-20T15:12:40.167Z,3.13
2022-08-20T15:15:15.442Z,1.60
2022-08-20T15:17:46.277Z,1.70
2022-08-20T15:20:20.731Z,2.10
2022-08-20T15:22:49.442Z,2.38
2022-08-20T15:25:19.236Z,2.50
2022-08-20T15:27:47.000Z,2.28
2022-08-20T15:30:18.066Z,2.30
2022-08-20T15:35:13.742Z,1.83
2022-08-20T15:37:43.315Z,2.03
2022-08-20T15:40:12.199Z,1.30
2022-08-20T15:42:40.312Z,1.08
2022-08-20T15:45:08.899Z,3.13
2022-08-20T15:47:48.898Z,1.45
2022-08-20T15:50:31.494Z,3.25
2022-08-20T15:53:07.154Z,2.00
2022-08-20T15:55:36.005Z,0.80
2022-08-20T15:58:46.022Z,1.38
2022-08-20T16:01:40.331Z,1.17
2022-08-20T16:04:33.423Z,1.48
2022-08-20T16:07:07.269Z,1.08
2022-08-20T16:09:49.188Z,1.35
2022-08-20T16:12:36.924Z,1.20
2022-08-20T16:15:14.540Z,2.33
2022-08-20T16:17:47.713Z,1.38
2022-08-20T16:20:35.251Z,1.13
2022-08-20T16:23:04.277Z,1.48
2022-08-20T16:25:38.984Z,1.05
2022-08-20T16:28:24.256Z,1.20
2022-08-20T16:31:04.230Z,1.50
2022-08-20T16:34:34.339Z,1.55
2022-08-20T16:37:16.601Z,1.23
2022-08-20T16:39:52.858Z,0.85
2022-08-20T16:42:24.675Z,0.68
2022-08-20T16:44:54.996Z,1.25
2022-08-20T16:47:31.851Z,1.23
2022-08-20T16:50:07.002Z,1.15
2022-08-20T16:52:34.112Z,1.67
2022-08-20T16:55:01.109Z,2.42
2022-08-20T16:57:29.222Z,1.63
2022-08-20T17:00:18.911Z,3.25
2022-08-20T17:02:52.561Z,1.63
2022-08-20T17:05:20.514Z,1.90
2022-08-20T17:07:51.400Z,2.60
2022-08-20T17:10:20.937Z,5.18
2022-08-20T17:13:13.988Z,2.92
2022-08-20T17:15:44.875Z,2.10
2022-08-20T17:18:34.615Z,1.48
2022-08-20T17:21:06.643Z,3.15
2022-08-20T17:23:54.829Z,1.35
2022-08-20T17:26:42.809Z,1.23
2022-08-20T17:29:20.414Z,1.80
2022-08-20T17:31:57.558Z,1.10
2022-08-20T17:34:28.495Z,4.07
2022-08-20T17:37:34.833Z,1.77
2022-08-20T17:40:12.029Z,1.98
2022-08-20T17:42:58.708Z,1.85
2022-08-20T17:45:33.253Z,2.47
2022-08-20T17:48:00.650Z,4.78
2022-08-20T17:50:33.489Z,1.77
2022-08-20T17:53:23.560Z,1.25
2022-08-20T17:55:58.750Z,1.58
2022-08-20T17:58:55.015Z,1.60
2022-08-20T18:01:23.812Z,1.35
2022-08-20T18:03:52.642Z,3.20
2022-08-20T18:06:42.751Z,2.00
2022-08-20T18:09:32.974Z,3.30
2022-08-20T18:12:21.830Z,1.63
2022-08-20T18:15:24.670Z,2.65
2022-08-20T18:18:10.433Z,1.52
2022-08-20T18:20:37.855Z,1.80
2022-08-20T18:23:23.797Z,1.60
2022-08-20T18:25:57.505Z,1.88
2022-08-20T18:28:38.592Z,1.30
2022-08-20T18:31:08.996Z,1.42
2022-08-20T18:33:39.728Z,0.95
2022-08-20T18:36:11.261Z,1.15
2022-08-20T18:38:44.173Z,1.10
2022-08-20T18:41:27.881Z,1.15
2022-08-20T18:44:28.275Z,1.65
2022-08-20T18:46:57.562Z,1.38
2022-08-20T18:49:41.670Z,1.40
2022-08-20T18:52:15.780Z,1.77
2022-08-20T18:54:50.572Z,0.95
2022-08-20T18:57:26.371Z,2.95
2022-08-20T19:00:14.219Z,2.90
2022-08-20T19:03:07.050Z,2.33
2022-08-20T19:05:45.023Z,1.40
2022-08-20T19:08:25.582Z,1.70
2022-08-20T19:10:55.218Z,2.28
2022-08-20T19:13:30.792Z,1.77
2022-08-20T19:16:05.752Z,0.93
2022-08-20T19:18:54.833Z,1.38
2022-08-20T19:21:32.843Z,1.67
2022-08-20T19:24:02.886Z,1.63
2022-08-20T19:26:33.058Z,1.75
2022-08-20T19:29:09.224Z,1.63
2022-08-20T19:31:37.260Z,4.13
2022-08-20T19:34:07.310Z,2.33
2022-08-20T19:36:59.187Z,1.48
2022-08-20T19:39:35.669Z,1.77
2022-08-20T19:42:09.056Z,2.42
2022-08-20T19:44:41.262Z,2.10
2022-08-20T19:47:30.683Z,1.58
2022-08-20T19:50:16.017Z,1.15
2022-08-20T19:52:56.808Z,2.17
2022-08-20T19:55:26.714Z,4.18
2022-08-20T19:57:59.791Z,1.48
2022-08-20T20:00:30.771Z,1.27
2022-08-20T20:03:08.777Z,1.77
2022-08-20T20:05:35.911Z,1.10
2022-08-20T20:08:03.865Z,1.55
2022-08-20T20:10:35.661Z,0.93
2022-08-20T20:13:12.365Z,0.80
2022-08-20T20:15:40.116Z,0.80
2022-08-20T20:18:08.843Z,1.38
2022-08-20T20:20:55.848Z,1.00
2022-08-20T20:23:46.073Z,1.20
2022-08-20T20:26:17.280Z,0.60
2022-08-20T20:28:48.354Z,0.68
2022-08-20T20:31:27.572Z,0.90
2022-08-20T20:33:58.686Z,1.35
2022-08-20T20:39:05.804Z,0.70
2022-08-20T20:41:34.442Z,1.52
2022-08-20T20:44:03.036Z,2.22
2022-08-20T20:46:32.812Z,0.80
2022-08-20T20:49:08.742Z,1.05
2022-08-20T20:51:41.284Z,1.45
2022-08-20T20:54:43.147Z,1.20
2022-08-20T20:57:38.739Z,1.13
2022-08-20T21:00:17.558Z,0.85
2022-08-20T21:02:45.534Z,1.17
2022-08-20T21:05:15.041Z,0.93
2022-08-20T21:07:54.422Z,0.85
2022-08-20T21:10:24.565Z,0.63
2022-08-20T21:12:53.119Z,7.22
2022-08-20T21:15:22.286Z,2.05
2022-08-20T21:17:49.043Z,1.13
2022-08-20T21:20:16.186Z,1.58
2022-08-20T21:22:43.264Z,0.85
2022-08-20T21:25:11.331Z,1.15
2022-08-20T21:27:43.128Z,3.00
2022-08-20T21:30:10.395Z,3.25
2022-08-20T21:32:37.372Z,7.90
2022-08-20T21:35:04.278Z,3.53
2022-08-20T21:37:31.037Z,2.45
2022-08-20T21:39:57.824Z,1.83
2022-08-20T21:42:29.322Z,1.20
2022-08-20T21:44:58.156Z,1.35
2022-08-20T21:47:25.866Z,1.02
2022-08-20T21:49:53.421Z,1.98
2022-08-20T21:52:20.467Z,1.15
2022-08-20T21:54:47.476Z,1.08
2022-08-20T21:57:28.005Z,0.70
2022-08-20T21:59:56.040Z,1.85
2022-08-20T22:02:25.153Z,3.03
2022-08-20T22:04:53.907Z,3.95
2022-08-20T22:07:22.020Z,1.98
2022-08-20T22:09:48.839Z,6.15
2022-08-20T22:12:19.762Z,15.15
2022-08-20T22:14:47.243Z,1.70
2022-08-20T22:17:15.247Z,1.38
2022-08-20T22:19:42.067Z,2.17
2022-08-20T22:22:11.233Z,1.98
2022-08-20T22:24:38.470Z,1.40
2022-08-20T22:27:08.291Z,1.30
2022-08-20T22:29:35.309Z,0.70
2022-08-20T22:32:02.440Z,0.95
2022-08-20T22:34:32.014Z,1.15
2022-08-20T22:37:00.310Z,0.98
2022-08-20T22:39:27.465Z,1.15
2022-08-20T22:41:58.999Z,1.45
2022-08-20T22:44:26.058Z,0.63
2022-08-20T22:46:56.370Z,0.55
2022-08-20T22:49:28.146Z,0.67
2022-08-20T22:51:56.655Z,0.85
2022-08-20T22:54:25.143Z,1.20
2022-08-20T22:56:53.171Z,1.23
2022-08-20T22:59:21.439Z,0.57
2022-08-20T23:01:49.876Z,0.98
2022-08-20T23:04:28.305Z,0.82
2022-08-20T23:06:56.723Z,0.60
2022-08-20T23:09:24.540Z,0.63
2022-08-20T23:11:51.787Z,0.82
2022-08-20T23:14:19.209Z,0.60
2022-08-20T23:16:50.818Z,0.82
2022-08-20T23:19:23.255Z,0.65
2022-08-20T23:21:51.386Z,0.85
2022-08-20T23:24:18.382Z,0.90
2022-08-20T23:26:52.367Z,0.68
2022-08-20T23:29:22.596Z,0.82
2022-08-20T23:31:53.541Z,1.00
2022-08-20T23:34:20.223Z,1.38
2022-08-20T23:36:47.152Z,0.80
2022-08-20T23:39:14.209Z,0.90
2022-08-20T23:41:45.416Z,0.93
2022-08-20T23:44:25.441Z,0.55
2022-08-20T23:46:59.284Z,0.60
2022-08-20T23:49:27.414Z,0.43
2022-08-20T23:51:54.586Z,0.30
2022-08-20T23:54:21.910Z,0.45
2022-08-20T23:56:49.800Z,0.60
2022-08-20T23:59:16.888Z,0.52
